Half Moon Bay, CA (94019)

5:06 PM PDT on August 28, 2015 (GMT -0700)
Canada Cove | | Change Station
CLOSE
Current Station
Personal Weather Station
Location: Half Moon Bay, CA
Elevation: 95 ft
Nearby Weather Stations

Elev 95 ft 37.43 °N, 122.43 °W | Updated 5 seconds ago

Partly Cloudy
Partly Cloudy
64.6 °F
Feels Like 64.6 °F
N
2.1
Wind Variable Wind from West
Gusts 6.0 mph

Today
High -- | Low -- °F
--% Chance of Precip.
Yesterday
High -- | Low -- °F
Precip. -- in
6:36 AM 7:44 PM
Waxing Gibbous, 99% visible
Pressure 29.92 in
Visibility 1.0 miles
Clouds Overcast 300 ft
Dew Point 60 °F
Humidity 85%
Rainfall 0.00 in
Snow Depth Not available.
UV 1 out of 12
Pollen 6.70 out of 12
Air Quality Not available.
Flu Activity Not available.
METAR KHAF 282355Z AUTO 31010KT 1SM BR OVC003 18/17 A2992 RMK AO2
Pressure 29.92 in
Visibility 1.0 miles
Clouds Overcast 300 ft
Dew Point 60 °F
Humidity 85%
Rainfall 0.00 in
Snow Depth Not available.
UV 1 out of 12
Pollen 6.70 out of 12
Air Quality Not available.
Flu Activity Not available.
METAR KHAF 282355Z AUTO 31010KT 1SM BR OVC003 18/17 A2992 RMK AO2

10-Day Weather Forecast

×

Almanac

Astronomy

Aug. 28, 2015 Rise Set
Actual Time
Civil Twilight
Nautical Twilight
Astronomical Twilight
Moon
Length of Visible Light
Length of Day
Tomorrow will be .
, % of the Moon is Illuminated

Today's Extremes

State Highs State Lows

Community

WunderPhotos

Upload Photos

1,850,538 photos uploaded!

WunderBlogs® & News

Nearby

Air Quality

  Air Quality AQ Index Pollutant
Not available.

Snow Depth

Station Depth Elevation

Earthquake Activity

City Distance Mag. Time & Date
Minimum magnitude displayed is 2.5.

Coastal Water Temperatures

Place Temperature

Stations

Nearby Weather Stations

Station Location Temp. Windchill Dew Point Humidity Wind Precip. Elev Updated Type